sensor_id;sensor_type;location;lat;lon;timestamp;pressure;altitude;pressure_sealevel;temperature;humidity
57594;BME280;43423;46.510;6.686;2024-03-23T00:54:17;96161.25;;;13.54;59.02
57594;BME280;43423;46.510;6.686;2024-03-23T00:56:42;96146.94;;;13.56;59.23
57594;BME280;43423;46.510;6.686;2024-03-23T00:59:08;96146.44;;;13.57;58.37
57594;BME280;43423;46.510;6.686;2024-03-23T01:01:34;96149.94;;;13.58;60.47
57594;BME280;43423;46.510;6.686;2024-03-23T01:03:59;96144.69;;;13.54;59.82
57594;BME280;43423;46.510;6.686;2024-03-23T01:06:25;96129.91;;;13.46;59.52
57594;BME280;43423;46.510;6.686;2024-03-23T01:08:51;96131.66;;;13.38;59.58
57594;BME280;43423;46.510;6.686;2024-03-23T01:11:18;96126.38;;;13.34;59.69
57594;BME280;43423;46.510;6.686;2024-03-23T01:13:43;96130.16;;;13.31;59.89
57594;BME280;43423;46.510;6.686;2024-03-23T01:16:09;96121.63;;;13.18;59.97
57594;BME280;43423;46.510;6.686;2024-03-23T01:18:34;96129.69;;;13.22;59.97
57594;BME280;43423;46.510;6.686;2024-03-23T01:21:00;96120.16;;;13.23;60.36
57594;BME280;43423;46.510;6.686;2024-03-23T01:23:25;96117.13;;;12.98;62.59
57594;BME280;43423;46.510;6.686;2024-03-23T01:25:52;96115.59;;;13.03;63.65
57594;BME280;43423;46.510;6.686;2024-03-23T01:28:21;96115.38;;;12.56;64.60
57594;BME280;43423;46.510;6.686;2024-03-23T01:30:48;96110.09;;;12.52;64.49
57594;BME280;43423;46.510;6.686;2024-03-23T01:33:14;96114.88;;;12.74;62.76
57594;BME280;43423;46.510;6.686;2024-03-23T01:35:40;96126.13;;;12.71;63.27
57594;BME280;43423;46.510;6.686;2024-03-23T01:38:06;96124.13;;;12.77;62.23
57594;BME280;43423;46.510;6.686;2024-03-23T01:40:32;96120.63;;;12.71;62.75
57594;BME280;43423;46.510;6.686;2024-03-23T01:42:58;96116.63;;;12.72;62.52
57594;BME280;43423;46.510;6.686;2024-03-23T01:45:24;96115.09;;;12.71;62.85
57594;BME280;43423;46.510;6.686;2024-03-23T01:47:51;96125.16;;;12.74;62.77
57594;BME280;43423;46.510;6.686;2024-03-23T01:50:17;96117.63;;;12.69;64.06
57594;BME280;43423;46.510;6.686;2024-03-23T01:52:43;96129.38;;;12.64;63.96
57594;BME280;43423;46.510;6.686;2024-03-23T01:55:10;96127.38;;;12.47;66.16
57594;BME280;43423;46.510;6.686;2024-03-23T01:57:35;96122.13;;;12.61;63.68
57594;BME280;43423;46.510;6.686;2024-03-23T02:00:01;96104.81;;;12.60;65.25
57594;BME280;43423;46.510;6.686;2024-03-23T02:02:26;96105.81;;;12.46;65.40
57594;BME280;43423;46.510;6.686;2024-03-23T02:04:53;96108.56;;;12.63;66.00
57594;BME280;43423;46.510;6.686;2024-03-23T02:07:18;96110.06;;;12.64;65.67
57594;BME280;43423;46.510;6.686;2024-03-23T02:09:44;96111.06;;;12.55;66.29
57594;BME280;43423;46.510;6.686;2024-03-23T02:12:09;96110.09;;;12.52;65.97
57594;BME280;43423;46.510;6.686;2024-03-23T02:14:35;96106.09;;;12.59;64.64
57594;BME280;43423;46.510;6.686;2024-03-23T02:17:01;96103.31;;;12.53;65.70
57594;BME280;43423;46.510;6.686;2024-03-23T02:19:27;96104.06;;;12.60;65.22
57594;BME280;43423;46.510;6.686;2024-03-23T02:21:52;96093.03;;;12.60;64.54
57594;BME280;43423;46.510;6.686;2024-03-23T02:24:18;96098.31;;;12.57;65.32
57594;BME280;43423;46.510;6.686;2024-03-23T02:26:44;96092.53;;;12.55;64.47
57594;BME280;43423;46.510;6.686;2024-03-23T02:29:09;96096.81;;;12.56;64.55
57594;BME280;43423;46.510;6.686;2024-03-23T02:31:35;96097.78;;;12.42;63.52
57594;BME280;43423;46.510;6.686;2024-03-23T02:34:01;96086.53;;;12.51;62.81
57594;BME280;43423;46.510;6.686;2024-03-23T02:36:27;96084.03;;;12.59;61.57
57594;BME280;43423;46.510;6.686;2024-03-23T02:38:53;96079.75;;;12.64;61.86
57594;BME280;43423;46.510;6.686;2024-03-23T02:41:18;96087.03;;;12.67;61.15
57594;BME280;43423;46.510;6.686;2024-03-23T02:43:52;96082.25;;;12.78;60.65
57594;BME280;43423;46.510;6.686;2024-03-23T02:46:17;96084.53;;;12.74;60.60
57594;BME280;43423;46.510;6.686;2024-03-23T02:48:43;96087.78;;;12.73;60.62
57594;BME280;43423;46.510;6.686;2024-03-23T02:51:09;96083.50;;;12.55;63.30
57594;BME280;43423;46.510;6.686;2024-03-23T02:53:35;96092.78;;;12.41;62.78
57594;BME280;43423;46.510;6.686;2024-03-23T02:56:00;96089.00;;;12.27;64.37
57594;BME280;43423;46.510;6.686;2024-03-23T02:58:26;96085.50;;;12.43;63.87
57594;BME280;43423;46.510;6.686;2024-03-23T03:00:51;96081.75;;;12.46;63.73
57594;BME280;43423;46.510;6.686;2024-03-23T03:03:17;96085.25;;;12.52;61.72
57594;BME280;43423;46.510;6.686;2024-03-23T03:05:43;96087.78;;;12.56;62.43
57594;BME280;43423;46.510;6.686;2024-03-23T03:08:09;96086.50;;;12.63;62.09
57594;BME280;43423;46.510;6.686;2024-03-23T03:10:34;96084.25;;;12.61;62.12
57594;BME280;43423;46.510;6.686;2024-03-23T03:13:00;96086.78;;;12.70;61.37
57594;BME280;43423;46.510;6.686;2024-03-23T03:15:26;96072.22;;;12.75;60.95
57594;BME280;43423;46.510;6.686;2024-03-23T03:17:52;96077.25;;;12.77;62.84
57594;BME280;43423;46.510;6.686;2024-03-23T03:20:17;96078.00;;;12.72;63.36
57594;BME280;43423;46.510;6.686;2024-03-23T03:22:43;96085.53;;;12.66;63.88
57594;BME280;43423;46.510;6.686;2024-03-23T03:25:09;96082.50;;;12.64;62.27
57594;BME280;43423;46.510;6.686;2024-03-23T03:27:35;96077.00;;;12.75;61.54
57594;BME280;43423;46.510;6.686;2024-03-23T03:30:01;96080.25;;;12.79;62.60
57594;BME280;43423;46.510;6.686;2024-03-23T03:32:29;96070.72;;;12.85;62.39
57594;BME280;43423;46.510;6.686;2024-03-23T03:34:54;96066.19;;;12.94;60.70
57594;BME280;43423;46.510;6.686;2024-03-23T03:37:20;96065.19;;;13.02;60.27
57594;BME280;43423;46.510;6.686;2024-03-23T03:39:46;96062.41;;;13.02;60.67
57594;BME280;43423;46.510;6.686;2024-03-23T03:42:11;96049.63;;;13.05;62.22
57594;BME280;43423;46.510;6.686;2024-03-23T03:44:37;96046.84;;;13.10;61.83
57594;BME280;43423;46.510;6.686;2024-03-23T03:47:03;96049.88;;;13.12;60.89
57594;BME280;43423;46.510;6.686;2024-03-23T03:49:28;96041.81;;;13.14;61.57
57594;BME280;43423;46.510;6.686;2024-03-23T03:51:54;96045.84;;;13.13;61.63
57594;BME280;43423;46.510;6.686;2024-03-23T03:54:20;96043.31;;;13.16;63.41
57594;BME280;43423;46.510;6.686;2024-03-23T03:56:46;96042.84;;;13.11;63.68
57594;BME280;43423;46.510;6.686;2024-03-23T03:59:11;96035.84;;;12.99;65.10
57594;BME280;43423;46.510;6.686;2024-03-23T04:01:37;96038.59;;;13.05;63.55
57594;BME280;43423;46.510;6.686;2024-03-23T04:04:02;96040.84;;;13.01;64.48
57594;BME280;43423;46.510;6.686;2024-03-23T04:06:28;96035.59;;;12.97;63.29
57594;BME280;43423;46.510;6.686;2024-03-23T04:08:54;96027.78;;;13.07;64.32
57594;BME280;43423;46.510;6.686;2024-03-23T04:11:19;96026.06;;;12.93;64.52
57594;BME280;43423;46.510;6.686;2024-03-23T04:13:45;96021.00;;;13.02;65.53
57594;BME280;43423;46.510;6.686;2024-03-23T04:16:11;96011.50;;;12.92;65.43
57594;BME280;43423;46.510;6.686;2024-03-23T04:18:36;96001.47;;;12.95;67.12
57594;BME280;43423;46.510;6.686;2024-03-23T04:21:02;96001.97;;;13.04;66.57
57594;BME280;43423;46.510;6.686;2024-03-23T04:23:28;95997.69;;;13.03;68.16
57594;BME280;43423;46.510;6.686;2024-03-23T04:25:54;95995.75;;;12.65;72.19
57594;BME280;43423;46.510;6.686;2024-03-23T04:28:19;95999.03;;;12.41;73.19
57594;BME280;43423;46.510;6.686;2024-03-23T04:30:45;95988.22;;;12.54;73.66
57594;BME280;43423;46.510;6.686;2024-03-23T04:33:10;96005.28;;;12.64;73.58
57594;BME280;43423;46.510;6.686;2024-03-23T04:35:36;95997.78;;;12.58;78.09
57594;BME280;43423;46.510;6.686;2024-03-23T04:38:02;96002.03;;;12.43;80.24
57594;BME280;43423;46.510;6.686;2024-03-23T04:40:27;96016.03;;;12.00;84.94
57594;BME280;43423;46.510;6.686;2024-03-23T04:42:53;96011.00;;;11.87;88.46
57594;BME280;43423;46.510;6.686;2024-03-23T04:45:19;95998.25;;;11.95;90.98
57594;BME280;43423;46.510;6.686;2024-03-23T04:47:45;95990.63;;;11.68;89.82
57594;BME280;43423;46.510;6.686;2024-03-23T04:50:10;95993.94;;;11.78;90.92
57594;BME280;43423;46.510;6.686;2024-03-23T04:52:36;96002.22;;;11.89;86.20
57594;BME280;43423;46.510;6.686;2024-03-23T04:55:02;96007.22;;;11.85;87.96
57594;BME280;43423;46.510;6.686;2024-03-23T04:57:27;96025.53;;;11.99;86.34
57594;BME280;43423;46.510;6.686;2024-03-23T04:59:53;96015.00;;;11.81;92.48
57594;BME280;43423;46.510;6.686;2024-03-23T05:02:18;96049.19;;;11.57;98.23
57594;BME280;43423;46.510;6.686;2024-03-23T05:04:44;96067.44;;;11.49;100.00
57594;BME280;43423;46.510;6.686;2024-03-23T05:07:10;96072.63;;;11.41;100.00
57594;BME280;43423;46.510;6.686;2024-03-23T05:09:36;96079.00;;;11.64;100.00
57594;BME280;43423;46.510;6.686;2024-03-23T05:12:02;96074.50;;;11.67;100.00
57594;BME280;43423;46.510;6.686;2024-03-23T05:14:28;96090.25;;;11.61;100.00
57594;BME280;43423;46.510;6.686;2024-03-23T05:16:54;96077.09;;;11.33;100.00
57594;BME280;43423;46.510;6.686;2024-03-23T05:19:21;96090.38;;;11.35;100.00
57594;BME280;43423;46.510;6.686;2024-03-23T05:21:47;96103.50;;;11.57;100.00
57594;BME280;43423;46.510;6.686;2024-03-23T05:24:13;96106.97;;;11.52;100.00
57594;BME280;43423;46.510;6.686;2024-03-23T05:26:39;96114.78;;;11.59;100.00
57594;BME280;43423;46.510;6.686;2024-03-23T05:29:04;96118.72;;;11.46;100.00
57594;BME280;43423;46.510;6.686;2024-03-23T05:31:32;96114.34;;;11.23;100.00
57594;BME280;43423;46.510;6.686;2024-03-23T05:33:58;96122.06;;;11.19;100.00
57594;BME280;43423;46.510;6.686;2024-03-23T05:36:23;96114.53;;;11.14;100.00
57594;BME280;43423;46.510;6.686;2024-03-23T05:38:50;96132.19;;;11.02;100.00
57594;BME280;43423;46.510;6.686;2024-03-23T05:41:15;96132.53;;;11.15;100.00
57594;BME280;43423;46.510;6.686;2024-03-23T05:43:41;96148.00;;;11.07;100.00
57594;BME280;43423;46.510;6.686;2024-03-23T05:46:07;96149.91;;;11.32;100.00
57594;BME280;43423;46.510;6.686;2024-03-23T05:48:36;96152.16;;;10.97;100.00
57594;BME280;43423;46.510;6.686;2024-03-23T05:51:02;96153.53;;;10.81;100.00
57594;BME280;43423;46.510;6.686;2024-03-23T05:53:28;96162.63;;;10.93;100.00
57594;BME280;43423;46.510;6.686;2024-03-23T05:56:02;96174.69;;;10.69;100.00
57594;BME280;43423;46.510;6.686;2024-03-23T05:58:32;96183.16;;;10.97;100.00
57594;BME280;43423;46.510;6.686;2024-03-23T06:00:59;96199.47;;;11.01;100.00
57594;BME280;43423;46.510;6.686;2024-03-23T06:03:29;96193.69;;;10.99;100.00
57594;BME280;43423;46.510;6.686;2024-03-23T06:05:55;96208.22;;;10.99;100.00
57594;BME280;43423;46.510;6.686;2024-03-23T06:08:21;96209.59;;;11.15;100.00
57594;BME280;43423;46.510;6.686;2024-03-23T06:10:47;96211.47;;;11.03;100.00
57594;BME280;43423;46.510;6.686;2024-03-23T06:13:13;96206.47;;;11.02;100.00
57594;BME280;43423;46.510;6.686;2024-03-23T06:15:39;96223.88;;;11.19;100.00
57594;BME280;43423;46.510;6.686;2024-03-23T06:18:05;96228.94;;;11.26;96.60
57594;BME280;43423;46.510;6.686;2024-03-23T06:20:33;96228.31;;;11.11;98.89
57594;BME280;43423;46.510;6.686;2024-03-23T06:23:00;96243.44;;;11.27;95.79
57594;BME280;43423;46.510;6.686;2024-03-23T06:25:25;96230.00;;;11.34;97.43
57594;BME280;43423;46.510;6.686;2024-03-23T06:27:51;96244.44;;;11.24;96.24
57594;BME280;43423;46.510;6.686;2024-03-23T06:30:17;96247.75;;;11.33;97.72
57594;BME280;43423;46.510;6.686;2024-03-23T06:32:42;96253.44;;;11.24;99.05
57594;BME280;43423;46.510;6.686;2024-03-23T06:35:08;96255.66;;;11.20;98.50
57594;BME280;43423;46.510;6.686;2024-03-23T06:37:38;96262.13;;;11.17;99.74
57594;BME280;43423;46.510;6.686;2024-03-23T06:40:05;96257.28;;;11.32;98.55
57594;BME280;43423;46.510;6.686;2024-03-23T06:42:34;96251.72;;;11.27;99.02
57594;BME280;43423;46.510;6.686;2024-03-23T06:44:59;96267.63;;;11.17;98.85
57594;BME280;43423;46.510;6.686;2024-03-23T06:47:25;96258.00;;;11.01;98.76
57594;BME280;43423;46.510;6.686;2024-03-23T06:49:50;96261.94;;;10.95;98.31
57594;BME280;43423;46.510;6.686;2024-03-23T06:52:16;96278.22;;;11.24;97.15
57594;BME280;43423;46.510;6.686;2024-03-23T06:54:42;96286.41;;;11.18;96.68
57594;BME280;43423;46.510;6.686;2024-03-23T06:57:11;96274.00;;;11.03;98.02
57594;BME280;43423;46.510;6.686;2024-03-23T06:59:37;96287.50;;;11.01;96.71
57594;BME280;43423;46.510;6.686;2024-03-23T07:02:05;96286.75;;;11.00;98.00
57594;BME280;43423;46.510;6.686;2024-03-23T07:04:30;96302.81;;;11.07;98.40
57594;BME280;43423;46.510;6.686;2024-03-23T07:06:56;96292.25;;;11.00;97.46
57594;BME280;43423;46.510;6.686;2024-03-23T07:09:21;96290.69;;;10.94;100.00
57594;BME280;43423;46.510;6.686;2024-03-23T07:11:54;96307.19;;;11.19;97.34
57594;BME280;43423;46.510;6.686;2024-03-23T07:14:20;96292.28;;;11.06;98.29
57594;BME280;43423;46.510;6.686;2024-03-23T07:16:46;96298.59;;;11.12;99.76
57594;BME280;43423;46.510;6.686;2024-03-23T07:19:11;96304.16;;;11.17;100.00
57594;BME280;43423;46.510;6.686;2024-03-23T07:21:37;96295.81;;;11.64;95.33
57594;BME280;43423;46.510;6.686;2024-03-23T07:24:02;96295.56;;;11.36;94.89
57594;BME280;43423;46.510;6.686;2024-03-23T07:26:28;96295.69;;;10.95;99.06
57594;BME280;43423;46.510;6.686;2024-03-23T07:28:53;96305.75;;;11.24;96.74
57594;BME280;43423;46.510;6.686;2024-03-23T07:31:19;96302.06;;;11.33;96.83
57594;BME280;43423;46.510;6.686;2024-03-23T07:33:46;96307.13;;;11.40;94.47
57594;BME280;43423;46.510;6.686;2024-03-23T07:36:13;96318.84;;;11.35;96.57
57594;BME280;43423;46.510;6.686;2024-03-23T07:38:43;96324.16;;;11.44;97.46
57594;BME280;43423;46.510;6.686;2024-03-23T07:41:13;96322.81;;;11.60;95.24
57594;BME280;43423;46.510;6.686;2024-03-23T07:43:40;96322.53;;;11.58;92.51
57594;BME280;43423;46.510;6.686;2024-03-23T07:46:06;96331.63;;;11.64;90.43
57594;BME280;43423;46.510;6.686;2024-03-23T07:48:32;96341.06;;;11.57;92.50
57594;BME280;43423;46.510;6.686;2024-03-23T07:51:02;96339.53;;;11.25;92.29
57594;BME280;43423;46.510;6.686;2024-03-23T07:53:30;96339.25;;;11.23;92.75
57594;BME280;43423;46.510;6.686;2024-03-23T07:55:58;96353.22;;;11.19;92.03
57594;BME280;43423;46.510;6.686;2024-03-23T07:58:24;96357.22;;;11.18;90.58
57594;BME280;43423;46.510;6.686;2024-03-23T08:00:50;96356.34;;;11.06;93.68
57594;BME280;43423;46.510;6.686;2024-03-23T08:03:15;96359.06;;;10.60;92.50
57594;BME280;43423;46.510;6.686;2024-03-23T08:05:41;96353.78;;;11.03;89.99
57594;BME280;43423;46.510;6.686;2024-03-23T08:08:07;96367.56;;;11.03;90.30
57594;BME280;43423;46.510;6.686;2024-03-23T08:10:33;96368.22;;;10.98;88.98
57594;BME280;43423;46.510;6.686;2024-03-23T08:12:58;96362.88;;;10.88;88.83
57594;BME280;43423;46.510;6.686;2024-03-23T08:15:24;96387.44;;;10.92;89.34
57594;BME280;43423;46.510;6.686;2024-03-23T08:17:50;96382.09;;;10.83;91.70
57594;BME280;43423;46.510;6.686;2024-03-23T08:20:15;96381.56;;;11.05;91.71
57594;BME280;43423;46.510;6.686;2024-03-23T08:22:41;96386.19;;;10.73;93.22
57594;BME280;43423;46.510;6.686;2024-03-23T08:25:07;96390.25;;;10.57;94.99
57594;BME280;43423;46.510;6.686;2024-03-23T08:27:32;96399.25;;;10.57;94.73
57594;BME280;43423;46.510;6.686;2024-03-23T08:29:58;96404.00;;;10.57;96.15
57594;BME280;43423;46.510;6.686;2024-03-23T08:32:24;96407.03;;;10.79;93.13
57594;BME280;43423;46.510;6.686;2024-03-23T08:34:50;96410.13;;;10.67;92.20
57594;BME280;43423;46.510;6.686;2024-03-23T08:37:15;96398.66;;;10.68;92.19
57594;BME280;43423;46.510;6.686;2024-03-23T08:39:44;96407.56;;;10.63;94.19
57594;BME280;43423;46.510;6.686;2024-03-23T08:42:10;96424.19;;;10.54;90.19
57594;BME280;43423;46.510;6.686;2024-03-23T08:44:35;96419.06;;;9.97;95.88
57594;BME280;43423;46.510;6.686;2024-03-23T08:47:01;96426.34;;;10.29;92.63
57594;BME280;43423;46.510;6.686;2024-03-23T08:49:27;96431.69;;;10.03;94.49
57594;BME280;43423;46.510;6.686;2024-03-23T08:51:53;96444.53;;;10.12;96.59
57594;BME280;43423;46.510;6.686;2024-03-23T08:54:20;96431.56;;;10.13;95.46
57594;BME280;43423;46.510;6.686;2024-03-23T08:56:46;96432.25;;;10.22;91.86
57594;BME280;43423;46.510;6.686;2024-03-23T08:59:11;96439.13;;;10.32;89.52
57594;BME280;43423;46.510;6.686;2024-03-23T09:01:37;96441.22;;;10.38;88.17
57594;BME280;43423;46.510;6.686;2024-03-23T09:04:03;96450.09;;;10.18;85.28
57594;BME280;43423;46.510;6.686;2024-03-23T09:06:29;96447.31;;;10.62;86.37
57594;BME280;43423;46.510;6.686;2024-03-23T09:08:55;96450.16;;;10.88;86.47
57594;BME280;43423;46.510;6.686;2024-03-23T09:11:21;96461.16;;;11.29;85.25
57594;BME280;43423;46.510;6.686;2024-03-23T09:13:46;96471.81;;;11.62;83.89
57594;BME280;43423;46.510;6.686;2024-03-23T09:16:12;96470.69;;;12.32;81.92
57594;BME280;43423;46.510;6.686;2024-03-23T09:18:38;96482.38;;;12.52;77.23
57594;BME280;43423;46.510;6.686;2024-03-23T09:21:11;96473.06;;;12.44;78.55
57594;BME280;43423;46.510;6.686;2024-03-23T09:23:37;96489.84;;;12.78;72.02
57594;BME280;43423;46.510;6.686;2024-03-23T09:26:03;96491.38;;;12.47;62.24
57594;BME280;43423;46.510;6.686;2024-03-23T09:28:29;96484.28;;;12.35;64.55
57594;BME280;43423;46.510;6.686;2024-03-23T09:31:02;96491.88;;;13.26;59.67
57594;BME280;43423;46.510;6.686;2024-03-23T09:33:28;96477.22;;;13.08;56.42
57594;BME280;43423;46.510;6.686;2024-03-23T09:35:54;96490.31;;;13.19;55.34
57594;BME280;43423;46.510;6.686;2024-03-23T09:38:21;96484.63;;;13.34;56.51
57594;BME280;43423;46.510;6.686;2024-03-23T09:40:48;96497.03;;;13.61;55.55
57594;BME280;43423;46.510;6.686;2024-03-23T09:43:15;96499.53;;;13.10;53.08
57594;BME280;43423;46.510;6.686;2024-03-23T09:45:41;96499.22;;;13.40;52.72
57594;BME280;43423;46.510;6.686;2024-03-23T09:48:08;96501.59;;;13.69;50.65
57594;BME280;43423;46.510;6.686;2024-03-23T09:50:38;96482.00;;;13.79;51.55
57594;BME280;43423;46.510;6.686;2024-03-23T09:53:06;96498.66;;;13.25;49.65
57594;BME280;43423;46.510;6.686;2024-03-23T09:55:31;96501.06;;;12.69;50.42
57594;BME280;43423;46.510;6.686;2024-03-23T09:57:57;96493.66;;;12.17;51.28
57594;BME280;43423;46.510;6.686;2024-03-23T10:00:23;96519.09;;;11.60;53.26
57594;BME280;43423;46.510;6.686;2024-03-23T10:02:49;96522.50;;;12.22;48.96
57594;BME280;43423;46.510;6.686;2024-03-23T10:05:21;96522.88;;;11.83;51.33
57594;BME280;43423;46.510;6.686;2024-03-23T10:07:50;96520.72;;;11.72;48.91
57594;BME280;43423;46.510;6.686;2024-03-23T10:10:17;96517.00;;;12.22;49.26
57594;BME280;43423;46.510;6.686;2024-03-23T10:12:47;96525.63;;;12.67;47.92
57594;BME280;43423;46.510;6.686;2024-03-23T10:15:24;96524.75;;;12.86;50.18
57594;BME280;43423;46.510;6.686;2024-03-23T10:17:50;96523.41;;;12.39;50.90
57594;BME280;43423;46.510;6.686;2024-03-23T10:20:22;96536.88;;;12.06;50.06
57594;BME280;43423;46.510;6.686;2024-03-23T10:22:52;96545.84;;;12.26;49.53
57594;BME280;43423;46.510;6.686;2024-03-23T10:25:18;96552.63;;;11.79;47.24
57594;BME280;43423;46.510;6.686;2024-03-23T10:27:58;96552.34;;;11.57;47.41
57594;BME280;43423;46.510;6.686;2024-03-23T10:30:24;96554.00;;;11.28;47.27
57594;BME280;43423;46.510;6.686;2024-03-23T10:33:11;96564.47;;;11.24;46.84
57594;BME280;43423;46.510;6.686;2024-03-23T10:35:37;96553.41;;;11.39;48.64
57594;BME280;43423;46.510;6.686;2024-03-23T10:38:07;96561.38;;;12.55;49.27
57594;BME280;43423;46.510;6.686;2024-03-23T10:40:36;96562.03;;;13.08;46.08
57594;BME280;43423;46.510;6.686;2024-03-23T10:43:06;96564.38;;;12.83;45.71
57594;BME280;43423;46.510;6.686;2024-03-23T10:45:32;96557.38;;;13.20;46.37
57594;BME280;43423;46.510;6.686;2024-03-23T10:47:58;96564.84;;;13.62;42.44
57594;BME280;43423;46.510;6.686;2024-03-23T10:50:24;96567.16;;;13.69;43.68
57594;BME280;43423;46.510;6.686;2024-03-23T10:52:52;96560.44;;;13.98;40.62
57594;BME280;43423;46.510;6.686;2024-03-23T10:55:19;96564.63;;;13.71;42.52
57594;BME280;43423;46.510;6.686;2024-03-23T10:57:54;96566.00;;;14.04;41.29
57594;BME280;43423;46.510;6.686;2024-03-23T11:00:20;96565.88;;;13.70;42.25
57594;BME280;43423;46.510;6.686;2024-03-23T11:02:50;96563.91;;;13.76;41.77
57594;BME280;43423;46.510;6.686;2024-03-23T11:05:31;96563.41;;;13.78;43.93
57594;BME280;43423;46.510;6.686;2024-03-23T11:07:57;96555.41;;;13.85;45.40
57594;BME280;43423;46.510;6.686;2024-03-23T11:10:28;96548.97;;;14.22;45.39
57594;BME280;43423;46.510;6.686;2024-03-23T11:12:58;96544.94;;;14.23;43.50
57594;BME280;43423;46.510;6.686;2024-03-23T11:15:23;96547.09;;;13.80;45.37
57594;BME280;43423;46.510;6.686;2024-03-23T11:18:03;96545.34;;;13.88;44.07
57594;BME280;43423;46.510;6.686;2024-03-23T11:20:33;96539.38;;;14.12;43.88
57594;BME280;43423;46.510;6.686;2024-03-23T11:22:59;96545.69;;;14.35;43.25
57594;BME280;43423;46.510;6.686;2024-03-23T11:25:26;96533.03;;;13.89;42.99
57594;BME280;43423;46.510;6.686;2024-03-23T11:27:54;96532.00;;;13.81;43.11
57594;BME280;43423;46.510;6.686;2024-03-23T11:30:27;96538.00;;;13.74;42.49
57594;BME280;43423;46.510;6.686;2024-03-23T11:32:57;96524.97;;;13.80;42.56
57594;BME280;43423;46.510;6.686;2024-03-23T11:35:37;96524.06;;;14.16;43.27
57594;BME280;43423;46.510;6.686;2024-03-23T11:40:30;96524.91;;;13.57;46.03
57594;BME280;43423;46.510;6.686;2024-03-23T11:42:58;96519.59;;;13.48;48.99
57594;BME280;43423;46.510;6.686;2024-03-23T11:45:24;96515.22;;;13.95;46.20
57594;BME280;43423;46.510;6.686;2024-03-23T11:48:05;96511.97;;;14.08;44.69
57594;BME280;43423;46.510;6.686;2024-03-23T11:50:31;96498.88;;;13.92;42.88
57594;BME280;43423;46.510;6.686;2024-03-23T11:53:07;96496.66;;;14.24;39.96
57594;BME280;43423;46.510;6.686;2024-03-23T11:55:45;96501.69;;;14.87;40.88
57594;BME280;43423;46.510;6.686;2024-03-23T11:58:12;96490.91;;;14.50;38.74
57594;BME280;43423;46.510;6.686;2024-03-23T12:00:38;96482.84;;;14.63;39.23
57594;BME280;43423;46.510;6.686;2024-03-23T12:03:05;96476.28;;;14.61;41.41
57594;BME280;43423;46.510;6.686;2024-03-23T12:05:31;96475.78;;;14.40;42.45
57594;BME280;43423;46.510;6.686;2024-03-23T12:08:17;96478.34;;;14.49;40.96
57594;BME280;43423;46.510;6.686;2024-03-23T12:11:04;96471.53;;;14.50;40.67
57594;BME280;43423;46.510;6.686;2024-03-23T12:13:30;96467.94;;;13.77;42.83
57594;BME280;43423;46.510;6.686;2024-03-23T12:16:09;96453.03;;;13.40;45.90
57594;BME280;43423;46.510;6.686;2024-03-23T12:18:36;96456.38;;;13.73;46.26
57594;BME280;43423;46.510;6.686;2024-03-23T12:21:02;96458.94;;;14.27;42.48
57594;BME280;43423;46.510;6.686;2024-03-23T12:23:28;96454.56;;;13.47;43.28
57594;BME280;43423;46.510;6.686;2024-03-23T12:25:53;96453.94;;;14.47;41.40
57594;BME280;43423;46.510;6.686;2024-03-23T12:28:19;96454.91;;;14.44;40.80
57594;BME280;43423;46.510;6.686;2024-03-23T12:30:44;96441.59;;;14.60;42.44
57594;BME280;43423;46.510;6.686;2024-03-23T12:33:10;96458.69;;;14.58;40.98
57594;BME280;43423;46.510;6.686;2024-03-23T12:35:36;96455.91;;;14.36;40.74
57594;BME280;43423;46.510;6.686;2024-03-23T12:38:03;96462.47;;;14.33;39.58
57594;BME280;43423;46.510;6.686;2024-03-23T12:40:28;96468.78;;;14.50;40.16
57594;BME280;43423;46.510;6.686;2024-03-23T12:42:55;96452.41;;;14.13;43.33
57594;BME280;43423;46.510;6.686;2024-03-23T12:45:22;96455.69;;;14.50;40.58
57594;BME280;43423;46.510;6.686;2024-03-23T12:47:48;96452.66;;;14.26;41.79
57594;BME280;43423;46.510;6.686;2024-03-23T12:50:13;96446.63;;;14.28;39.48
57594;BME280;43423;46.510;6.686;2024-03-23T12:52:39;96459.72;;;14.38;38.07
57594;BME280;43423;46.510;6.686;2024-03-23T12:55:05;96445.63;;;14.53;38.26
57594;BME280;43423;46.510;6.686;2024-03-23T12:57:33;96449.63;;;14.74;38.85
57594;BME280;43423;46.510;6.686;2024-03-23T12:59:59;96440.00;;;14.98;39.36
57594;BME280;43423;46.510;6.686;2024-03-23T13:02:26;96436.19;;;15.12;36.51
57594;BME280;43423;46.510;6.686;2024-03-23T13:04:53;96424.50;;;14.50;39.65
57594;BME280;43423;46.510;6.686;2024-03-23T13:07:20;96426.97;;;14.76;37.98
57594;BME280;43423;46.510;6.686;2024-03-23T13:09:47;96418.41;;;14.68;37.04
57594;BME280;43423;46.510;6.686;2024-03-23T13:12:12;96417.22;;;14.47;37.77
57594;BME280;43423;46.510;6.686;2024-03-23T13:14:39;96402.31;;;14.72;36.83
57594;BME280;43423;46.510;6.686;2024-03-23T13:17:05;96400.59;;;14.41;37.77
57594;BME280;43423;46.510;6.686;2024-03-23T13:19:31;96390.53;;;14.44;38.97
57594;BME280;43423;46.510;6.686;2024-03-23T13:21:58;96389.28;;;14.62;36.46
57594;BME280;43423;46.510;6.686;2024-03-23T13:24:27;96381.75;;;14.34;35.48
57594;BME280;43423;46.510;6.686;2024-03-23T13:26:54;96390.31;;;14.19;36.43
57594;BME280;43423;46.510;6.686;2024-03-23T13:29:21;96397.31;;;14.43;32.60
57594;BME280;43423;46.510;6.686;2024-03-23T13:31:49;96393.09;;;13.91;36.43
57594;BME280;43423;46.510;6.686;2024-03-23T13:34:15;96401.38;;;14.31;34.93
57594;BME280;43423;46.510;6.686;2024-03-23T13:36:45;96399.56;;;14.61;33.92
57594;BME280;43423;46.510;6.686;2024-03-23T13:39:11;96398.06;;;14.60;34.01
57594;BME280;43423;46.510;6.686;2024-03-23T13:41:44;96394.09;;;14.11;37.40
57594;BME280;43423;46.510;6.686;2024-03-23T13:44:11;96396.84;;;13.88;38.25
57594;BME280;43423;46.510;6.686;2024-03-23T13:46:41;96390.56;;;14.05;35.93
57594;BME280;43423;46.510;6.686;2024-03-23T13:51:54;96366.19;;;14.09;37.63
57594;BME280;43423;46.510;6.686;2024-03-23T13:54:20;96366.66;;;14.41;36.56
57594;BME280;43423;46.510;6.686;2024-03-23T13:56:55;96366.38;;;14.44;35.19